Time;durP1;ratioP1;P1;durP2;ratioP2;P2;SDS_P1;SDS_P2;PMS_P1;PMS_P2;Temp;Humidity;BMP_temperature;BMP_pressure;BME280_temperature;BME280_humidity;BME280_pressure;Samples;Min_cycle;Max_cycle;Signal;HPM_P1;HPM_P2
2022/12/28 00:01:21;;;;;;;10.25;4.53;;;7.10;99.90;;;;;;5032817;28;20025;-68
2022/12/28 00:03:47;;;;;;;;;;;7.10;99.90;;;;;;5034555;28;20084;-68
2022/12/28 00:06:13;;;;;;;10.45;3.47;;;7.20;99.90;;;;;;5034502;28;19905;-68
2022/12/28 00:08:42;;;;;;;13.15;5.15;;;7.10;99.90;;;;;;5034277;28;20037;-68
2022/12/28 00:11:11;;;;;;;13.13;6.00;;;7.10;99.90;;;;;;5034080;28;20030;-68
2022/12/28 00:13:37;;;;;;;10.93;4.88;;;7.20;99.90;;;;;;5033002;28;20091;-68
2022/12/28 00:16:25;;;;;;;13.85;6.13;;;7.20;99.90;;;;;;5034432;28;20455;-68
2022/12/28 00:18:50;;;;;;;8.75;4.25;;;7.20;99.90;;;;;;5032731;28;20029;-69
2022/12/28 00:21:16;;;;;;;15.13;4.90;;;7.30;99.90;;;;;;5033863;28;20099;-68
2022/12/28 00:23:42;;;;;;;16.48;5.53;;;7.30;99.90;;;;;;5033781;28;20029;-69
2022/12/28 00:26:10;;;;;;;11.02;4.20;;;7.40;99.90;;;;;;5033867;28;20080;-68
2022/12/28 00:28:35;;;;;;;11.80;4.75;;;7.40;99.90;;;;;;5033786;28;20025;-68
2022/12/28 00:31:01;;;;;;;13.20;5.03;;;7.40;99.90;;;;;;5032720;28;20080;-68
2022/12/28 00:33:27;;;;;;;11.93;4.18;;;7.40;99.90;;;;;;5031957;28;20033;-68
2022/12/28 00:35:56;;;;;;;15.63;5.22;;;7.50;99.90;;;;;;5033604;28;20076;-68
2022/12/28 00:38:23;;;;;;;15.40;6.30;;;7.50;99.90;;;;;;5033502;28;20029;-69
2022/12/28 00:40:48;;;;;;;11.25;4.18;;;7.50;99.90;;;;;;5031014;28;20041;-70
2022/12/28 00:43:15;;;;;;;12.48;4.90;;;7.50;99.90;;;;;;5033792;28;20029;-70
2022/12/28 00:45:45;;;;;;;14.40;6.10;;;7.50;99.90;;;;;;5033780;28;20033;-69
2022/12/28 00:48:12;;;;;;;11.50;4.22;;;7.60;99.90;;;;;;5033463;28;20411;-71
2022/12/28 00:50:38;;;;;;;11.43;4.05;;;7.60;99.90;;;;;;5033381;28;20029;-67
2022/12/28 00:53:04;;;;;;;10.23;4.22;;;7.70;99.90;;;;;;5032212;28;20029;-69
2022/12/28 00:55:32;;;;;;;8.10;3.08;;;7.70;99.90;;;;;;5033387;28;20022;-69
2022/12/28 00:57:59;;;;;;;12.98;4.43;;;7.70;99.90;;;;;;5033159;28;20025;-68
2022/12/28 01:00:25;;;;;;;10.02;3.75;;;7.80;99.90;;;;;;5019760;28;20037;-69
2022/12/28 01:02:51;;;;;;;10.60;4.15;;;7.80;99.90;;;;;;5034025;28;20084;-68
2022/12/28 01:05:16;;;;;;;7.63;3.92;;;7.90;99.90;;;;;;5033659;28;20030;-68
2022/12/28 01:07:42;;;;;;;13.52;3.90;;;7.90;99.90;;;;;;5034648;28;20069;-69
2022/12/28 01:10:08;;;;;;;8.45;3.85;;;7.90;99.90;;;;;;5034924;28;20575;-68
2022/12/28 01:12:33;;;;;;;7.60;4.05;;;8.00;99.90;;;;;;5032762;28;20041;-70
2022/12/28 01:14:59;;;;;;;13.10;3.95;;;8.00;99.90;;;;;;5015044;28;20022;-68
2022/12/28 01:17:24;;;;;;;11.40;4.30;;;8.10;99.90;;;;;;5014760;28;20529;-68
2022/12/28 01:19:50;;;;;;;11.63;4.45;;;8.10;99.90;;;;;;5014872;28;20061;-69
2022/12/28 01:22:15;;;;;;;7.47;3.42;;;8.20;99.90;;;;;;5014155;28;20041;-68
2022/12/28 01:24:41;;;;;;;9.13;3.40;;;8.20;99.90;;;;;;5032250;28;20375;-69
2022/12/28 01:27:07;;;;;;;8.95;4.57;;;8.30;99.90;;;;;;5033055;28;20033;-67
2022/12/28 01:29:32;;;;;;;9.70;4.28;;;8.30;99.90;;;;;;5033710;28;20116;-68
2022/12/28 01:31:58;;;;;;;10.73;4.65;;;8.40;99.90;;;;;;5021262;28;20034;-69
2022/12/28 01:34:23;;;;;;;14.77;4.38;;;8.40;99.90;;;;;;5014055;28;20026;-69
2022/12/28 01:36:49;;;;;;;13.25;4.22;;;8.50;99.90;;;;;;5014720;28;20030;-67
2022/12/28 01:39:15;;;;;;;7.70;3.90;;;8.50;99.90;;;;;;5014370;28;20030;-67
2022/12/28 01:41:41;;;;;;;9.95;4.40;;;8.50;99.90;;;;;;5013838;28;20037;-68
2022/12/28 01:44:09;;;;;;;12.45;4.50;;;8.50;99.90;;;;;;5014306;28;20462;-69
2022/12/28 01:46:54;;;;;;;11.10;4.10;;;8.60;99.90;;;;;;5014118;28;20379;-69
2022/12/28 01:49:31;;;;;;;14.20;5.30;;;8.60;99.90;;;;;;5014230;28;20079;-69
2022/12/28 01:52:21;;;;;;;13.75;4.43;;;8.70;99.90;;;;;;5024820;28;20518;-69
2022/12/28 01:54:53;;;;;;;8.98;3.45;;;8.70;99.90;;;;;;5034058;28;20030;-69
2022/12/28 01:57:22;;;;;;;6.05;3.50;;;8.70;99.90;;;;;;5033936;28;20040;-68
2022/12/28 01:59:54;;;;;;;9.57;4.22;;;8.70;99.90;;;;;;5033069;28;20045;-69
2022/12/28 02:02:21;;;;;;;12.35;5.00;;;8.70;99.90;;;;;;5022041;28;20036;-68
2022/12/28 02:04:47;;;;;;;11.05;4.80;;;8.70;99.90;;;;;;5013968;28;20026;-68
2022/12/28 02:07:20;;;;;;;11.93;4.57;;;8.70;99.90;;;;;;5013734;28;20022;-69
2022/12/28 02:09:46;;;;;;;10.43;4.50;;;8.70;99.90;;;;;;5014521;28;20400;-68
2022/12/28 02:12:15;;;;;;;9.52;4.00;;;8.70;99.90;;;;;;5014909;28;20037;-68
2022/12/28 02:14:43;;;;;;;9.98;4.65;;;8.70;99.90;;;;;;5013850;28;20029;-68
2022/12/28 02:17:10;;;;;;;11.82;5.38;;;8.70;99.90;;;;;;5013962;28;20054;-68
2022/12/28 02:19:47;;;;;;;10.93;5.05;;;8.70;99.90;;;;;;5019111;28;20057;-69
2022/12/28 02:22:27;;;;;;;10.02;4.53;;;8.80;99.90;;;;;;5033002;28;20069;-68
2022/12/28 02:25:24;;;;;;;12.05;5.18;;;8.70;99.90;;;;;;5033405;28;20026;-69
2022/12/28 02:28:11;;;;;;;10.27;5.60;;;8.80;99.90;;;;;;5033330;28;20037;-69
2022/12/28 02:30:46;;;;;;;11.00;4.75;;;8.80;99.90;;;;;;5031107;28;20037;-69
2022/12/28 02:33:32;;;;;;;11.38;4.07;;;8.90;99.90;;;;;;5013380;28;20101;-68
2022/12/28 02:36:09;;;;;;;10.13;4.13;;;8.90;99.90;;;;;;5013328;28;20025;-70
2022/12/28 02:38:54;;;;;;;7.65;3.88;;;8.90;99.90;;;;;;5013429;28;20146;-69
2022/12/28 02:41:23;;;;;;;11.77;4.22;;;9.00;99.90;;;;;;5018058;28;20037;-70
2022/12/28 02:43:49;;;;;;;9.90;4.00;;;9.00;99.90;;;;;;5033580;28;20029;-69
2022/12/28 02:52:36;;;;;;;11.93;4.57;;;9.20;99.90;;;;;;5013043;28;20051;-70
2022/12/28 02:58:16;;;;;;;9.50;4.82;;;9.20;99.90;;;;;;5012949;28;20132;-68
2022/12/28 03:00:54;;;;;;;9.95;5.22;;;9.20;99.90;;;;;;5012915;28;20029;-69
2022/12/28 03:03:35;;;;;;;11.07;5.60;;;9.20;99.90;;;;;;5031212;28;20083;-68
2022/12/28 03:09:18;;;;;;;11.10;4.90;;;9.20;99.90;;;;;;5032357;28;20021;-68
2022/12/28 03:11:57;;;;;;;13.60;5.88;;;9.10;99.90;;;;;;5023191;28;20049;-70
2022/12/28 03:15:04;;;;;;;12.05;5.38;;;9.10;99.90;;;;;;5012394;28;20095;-70
2022/12/28 03:31:29;;;;;;;11.93;5.03;;;9.10;99.90;;;;;;5024814;28;20146;-69
2022/12/28 03:34:08;;;;;;;11.60;5.75;;;9.10;99.90;;;;;;5012651;28;20057;-70
2022/12/28 03:36:41;;;;;;;15.65;5.60;;;9.10;99.90;;;;;;5012540;28;20482;-68
2022/12/28 03:39:20;;;;;;;11.98;5.05;;;9.10;99.90;;;;;;5012545;28;20487;-70
2022/12/28 03:45:13;;;;;;;14.60;6.03;;;9.10;99.90;;;;;;5014011;28;20433;-68
2022/12/28 03:47:41;;;;;;;13.18;5.18;;;9.10;99.90;;;;;;5012456;28;20353;-68
2022/12/28 03:50:07;;;;;;;16.20;5.35;;;9.20;99.90;;;;;;5012242;28;20398;-70
2022/12/28 03:52:33;;;;;;;11.45;4.90;;;9.20;99.90;;;;;;5027840;28;20117;-69
2022/12/28 03:54:59;;;;;;;14.15;5.40;;;9.20;99.90;;;;;;5031803;28;20115;-68
2022/12/28 03:57:24;;;;;;;15.40;4.95;;;9.20;99.90;;;;;;5032199;28;20034;-70
2022/12/28 03:59:50;;;;;;;12.32;3.92;;;9.20;99.90;;;;;;5029655;28;20090;-69
2022/12/28 04:02:15;;;;;;;15.15;5.78;;;9.20;99.90;;;;;;5015276;28;20048;-69
2022/12/28 04:04:41;;;;;;;13.35;5.13;;;9.20;99.90;;;;;;5031337;28;20064;-69
2022/12/28 04:07:06;;;;;;;13.35;5.53;;;9.20;99.90;;;;;;5031425;28;20386;-70
2022/12/28 04:09:32;;;;;;;16.73;5.55;;;9.20;99.90;;;;;;5024922;28;20379;-70
2022/12/28 04:11:58;;;;;;;12.23;4.88;;;9.20;99.90;;;;;;5012781;28;20026;-70
2022/12/28 04:14:24;;;;;;;15.65;5.50;;;9.20;99.90;;;;;;5028755;28;20487;-68
2022/12/28 04:16:49;;;;;;;18.92;4.93;;;9.10;99.90;;;;;;5031524;28;20022;-71
2022/12/28 04:19:15;;;;;;;10.93;4.65;;;9.20;99.90;;;;;;5032047;28;20124;-68
2022/12/28 04:21:40;;;;;;;19.27;5.57;;;9.20;99.90;;;;;;5027857;28;20395;-70
2022/12/28 04:24:06;;;;;;;12.20;5.05;;;9.20;99.90;;;;;;5031610;28;20053;-71
2022/12/28 04:26:32;;;;;;;15.90;5.13;;;9.20;99.90;;;;;;5032980;28;20379;-69
2022/12/28 04:29:00;;;;;;;16.40;4.25;;;9.20;99.90;;;;;;5031800;28;20462;-69
2022/12/28 04:31:27;;;;;;;12.38;4.28;;;9.30;99.90;;;;;;5023783;28;20049;-70
2022/12/28 04:33:56;;;;;;;14.90;5.45;;;9.30;99.90;;;;;;5035205;28;20033;-68
2022/12/28 04:36:22;;;;;;;12.57;4.40;;;9.30;99.90;;;;;;5034766;28;20068;-70
2022/12/28 04:38:47;;;;;;;13.07;4.57;;;9.30;99.90;;;;;;5035613;28;20029;-68
2022/12/28 04:41:13;;;;;;;21.00;4.47;;;9.30;99.90;;;;;;5033759;28;20538;-71
2022/12/28 04:43:39;;;;;;;12.63;4.35;;;9.40;99.90;;;;;;5034663;28;20098;-69
2022/12/28 04:46:13;;;;;;;12.80;4.78;;;9.40;99.90;;;;;;5034309;28;20044;-68
2022/12/28 04:48:39;;;;;;;13.25;4.78;;;9.40;99.90;;;;;;5030444;28;20046;-68
2022/12/28 04:51:14;;;;;;;11.40;4.03;;;9.40;99.90;;;;;;5023498;28;20030;-69
2022/12/28 04:53:40;;;;;;;10.98;3.97;;;9.50;99.90;;;;;;5034173;28;20487;-69
2022/12/28 04:56:08;;;;;;;11.45;3.50;;;9.50;99.90;;;;;;5034527;28;20399;-68
2022/12/28 04:58:34;;;;;;;14.70;4.47;;;9.50;99.90;;;;;;5034155;28;20033;-69
2022/12/28 05:01:13;;;;;;;6.32;3.65;;;9.50;99.90;;;;;;5025711;28;20054;-68
2022/12/28 05:03:40;;;;;;;16.05;4.18;;;9.50;99.90;;;;;;5027233;28;20025;-71
2022/12/28 05:06:10;;;;;;;14.35;3.40;;;9.50;99.90;;;;;;5034811;28;20033;-69
2022/12/28 05:08:36;;;;;;;14.80;4.10;;;9.50;99.90;;;;;;5034256;28;20033;-70
2022/12/28 05:11:05;;;;;;;13.27;3.97;;;9.50;99.90;;;;;;5025760;28;20084;-69
2022/12/28 05:13:31;;;;;;;11.63;3.03;;;9.60;99.90;;;;;;5018849;28;20044;-70
2022/12/28 05:16:24;;;;;;;11.60;3.10;;;9.60;99.90;;;;;;5020243;28;20061;-70
2022/12/28 05:18:50;;;;;;;16.73;3.63;;;9.60;99.90;;;;;;5033781;28;20052;-70
2022/12/28 05:21:21;;;;;;;14.05;3.50;;;9.60;99.90;;;;;;5032467;28;20050;-70
2022/12/28 05:23:47;;;;;;;13.60;3.17;;;9.60;99.90;;;;;;5033463;28;20052;-68
2022/12/28 05:26:16;;;;;;;8.45;3.13;;;9.60;99.90;;;;;;5026625;28;20087;-68
2022/12/28 05:28:41;;;;;;;8.82;3.65;;;9.60;99.90;;;;;;5026184;28;20029;-69
2022/12/28 05:31:12;;;;;;;18.80;4.40;;;9.60;99.90;;;;;;5030600;28;20390;-68
2022/12/28 05:33:38;;;;;;;12.02;3.45;;;9.60;99.90;;;;;;5033081;28;20179;-69
2022/12/28 05:36:06;;;;;;;14.02;4.63;;;9.60;99.90;;;;;;5033770;28;20112;-69
2022/12/28 05:38:31;;;;;;;15.50;3.95;;;9.70;99.90;;;;;;5032324;28;20053;-69
2022/12/28 05:41:04;;;;;;;11.43;3.55;;;9.70;99.90;;;;;;5027316;28;20080;-70
2022/12/28 05:43:30;;;;;;;12.75;3.38;;;9.70;99.90;;;;;;5032119;28;20117;-68
2022/12/28 05:46:03;;;;;;;15.73;4.50;;;9.70;99.90;;;;;;5014292;28;20167;-68
2022/12/28 05:48:33;;;;;;;14.63;4.15;;;9.70;99.90;;;;;;5033126;28;20467;-69
2022/12/28 05:51:01;;;;;;;18.75;5.03;;;9.70;99.90;;;;;;5026611;28;20033;-71
2022/12/28 05:53:28;;;;;;;10.40;4.43;;;9.70;99.90;;;;;;5033684;28;20030;-69
2022/12/28 05:56:05;;;;;;;15.95;4.38;;;9.70;99.90;;;;;;5033658;28;20386;-70
2022/12/28 05:58:32;;;;;;;13.02;4.07;;;9.70;99.90;;;;;;5033597;28;20164;-70
2022/12/28 06:01:06;;;;;;;14.43;4.65;;;9.70;99.90;;;;;;5029740;28;20131;-70
2022/12/28 06:03:32;;;;;;;12.35;4.68;;;9.70;99.90;;;;;;5021855;28;20029;-70
2022/12/28 06:06:11;;;;;;;10.65;3.90;;;9.80;99.90;;;;;;5033030;28;20029;-68
2022/12/28 06:08:38;;;;;;;14.27;4.43;;;9.80;99.90;;;;;;5033231;28;20033;-71
2022/12/28 06:11:07;;;;;;;14.23;4.40;;;9.80;99.90;;;;;;5017378;28;20399;-69
2022/12/28 06:13:33;;;;;;;13.27;5.03;;;9.80;99.90;;;;;;5048429;28;20398;-70
2022/12/28 06:16:05;;;;;;;12.32;4.20;;;9.80;99.90;;;;;;5027013;28;20021;-69
2022/12/28 06:18:31;;;;;;;16.75;4.35;;;9.80;99.90;;;;;;5025137;28;20026;-70
2022/12/28 06:21:05;;;;;;;13.30;4.00;;;9.80;99.90;;;;;;5032066;28;20052;-70
2022/12/28 06:23:31;;;;;;;18.08;4.97;;;9.80;99.90;;;;;;5032616;28;20101;-68
2022/12/28 06:26:03;;;;;;;13.25;4.32;;;9.80;99.90;;;;;;5032994;28;20033;-69
2022/12/28 06:28:28;;;;;;;12.32;4.38;;;9.80;99.90;;;;;;5033274;28;20024;-69
2022/12/28 06:31:28;;;;;;;12.00;5.72;;;9.80;99.90;;;;;;5028035;28;20026;-69
2022/12/28 06:33:57;;;;;;;15.60;5.25;;;9.70;99.90;;;;;;5031659;28;20491;-70
2022/12/28 06:36:27;;;;;;;18.65;4.90;;;9.70;99.90;;;;;;5032159;28;20076;-70
2022/12/28 06:38:54;;;;;;;20.67;5.30;;;9.70;99.90;;;;;;5022146;28;20025;-70
2022/12/28 06:41:21;;;;;;;12.27;4.38;;;9.70;99.90;;;;;;5032058;28;20041;-69
2022/12/28 06:43:47;;;;;;;17.10;5.13;;;9.70;99.90;;;;;;5032257;28;20030;-69
2022/12/28 06:46:14;;;;;;;15.95;4.75;;;9.70;99.90;;;;;;5032953;28;20040;-69
2022/12/28 06:48:40;;;;;;;15.15;4.50;;;9.80;99.90;;;;;;5031778;28;20107;-69
2022/12/28 06:51:12;;;;;;;11.43;5.40;;;9.80;99.90;;;;;;5062744;28;20399;-70
2022/12/28 06:53:38;;;;;;;18.70;4.93;;;9.80;99.90;;;;;;5032478;28;20502;-70
2022/12/28 06:56:15;;;;;;;17.27;4.93;;;9.80;99.90;;;;;;5022842;28;20114;-70
2022/12/28 06:58:41;;;;;;;12.13;4.25;;;9.80;99.90;;;;;;5020364;28;20036;-68
2022/12/28 07:01:17;;;;;;;14.80;4.97;;;9.80;99.90;;;;;;5019748;28;20499;-70
2022/12/28 07:03:44;;;;;;;14.35;4.78;;;9.80;99.90;;;;;;5032917;28;20112;-69
2022/12/28 07:06:10;;;;;;;10.35;4.50;;;9.80;99.90;;;;;;5032077;28;20037;-69
2022/12/28 07:08:36;;;;;;;13.80;4.60;;;9.80;99.90;;;;;;5032394;28;20104;-69
2022/12/28 07:11:09;;;;;;;11.93;4.00;;;9.80;99.90;;;;;;5022099;28;20105;-68
2022/12/28 07:13:35;;;;;;;16.48;4.95;;;9.80;99.90;;;;;;5018656;28;20414;-68
2022/12/28 07:16:05;;;;;;;13.02;4.45;;;9.90;99.90;;;;;;5027186;28;20080;-70
2022/12/28 07:18:32;;;;;;;12.60;4.00;;;9.90;99.90;;;;;;5031482;28;20112;-69
2022/12/28 07:21:03;;;;;;;13.65;4.43;;;9.90;99.90;;;;;;5031319;28;20087;-68
2022/12/28 07:23:30;;;;;;;14.77;4.03;;;9.80;99.90;;;;;;5031958;28;20116;-68
2022/12/28 07:25:56;;;;;;;12.07;4.38;;;9.90;99.90;;;;;;5031841;28;20222;-68
2022/12/28 07:28:22;;;;;;;10.27;4.63;;;9.80;99.90;;;;;;5032477;28;20101;-69
2022/12/28 07:30:48;;;;;;;15.10;4.95;;;9.80;99.90;;;;;;5021246;28;20124;-70
2022/12/28 07:33:13;;;;;;;19.15;4.47;;;9.80;99.90;;;;;;5030698;28;20030;-68
2022/12/28 07:35:39;;;;;;;13.40;5.07;;;9.90;99.90;;;;;;5032064;28;20025;-69
2022/12/28 07:38:04;;;;;;;13.60;5.32;;;9.90;99.90;;;;;;5032267;28;20034;-70
2022/12/28 07:40:30;;;;;;;17.17;5.10;;;9.90;99.90;;;;;;5023676;28;20041;-69
2022/12/28 07:42:59;;;;;;;17.60;5.25;;;9.90;99.90;;;;;;5031729;28;20030;-70
2022/12/28 07:45:24;;;;;;;16.35;4.97;;;9.90;99.90;;;;;;5030513;28;20037;-68
2022/12/28 07:47:50;;;;;;;15.98;5.38;;;9.90;99.90;;;;;;5030918;28;20053;-69
2022/12/28 07:50:15;;;;;;;17.23;5.45;;;9.90;99.90;;;;;;5022341;28;20034;-68
2022/12/28 07:52:41;;;;;;;15.00;5.22;;;10.00;99.90;;;;;;5042171;28;20033;-69
2022/12/28 07:55:07;;;;;;;14.05;4.55;;;10.00;99.90;;;;;;5031192;28;20057;-68
2022/12/28 07:57:33;;;;;;;14.68;4.68;;;10.00;99.90;;;;;;5031460;28;20037;-69
2022/12/28 07:59:59;;;;;;;12.75;4.03;;;10.00;99.90;;;;;;5021149;28;20042;-69
2022/12/28 08:02:24;;;;;;;17.65;5.03;;;10.10;99.90;;;;;;5024187;28;20041;-69
2022/12/28 08:05:06;;;;;;;15.32;4.03;;;10.10;99.90;;;;;;5023850;28;20049;-69
2022/12/28 08:07:32;;;;;;;15.13;4.53;;;10.10;99.90;;;;;;5034911;28;20786;-68
2022/12/28 08:09:57;;;;;;;14.35;4.70;;;10.10;99.90;;;;;;5034558;28;20029;-68
2022/12/28 08:12:23;;;;;;;12.70;4.53;;;10.10;99.90;;;;;;5032989;28;20033;-69
2022/12/28 08:14:48;;;;;;;13.10;4.55;;;10.10;99.90;;;;;;5035280;28;20036;-68
2022/12/28 08:17:14;;;;;;;17.77;4.90;;;10.10;99.90;;;;;;5034477;28;20063;-68
2022/12/28 08:19:39;;;;;;;19.17;4.78;;;10.10;99.90;;;;;;5035101;28;20044;-69
2022/12/28 08:22:05;;;;;;;19.42;5.97;;;10.10;99.90;;;;;;5034387;28;20041;-68
2022/12/28 08:24:31;;;;;;;17.48;6.13;;;10.10;99.90;;;;;;5026905;28;20074;-68
2022/12/28 08:26:56;;;;;;;20.55;5.30;;;10.20;99.90;;;;;;5032387;28;20619;-68
2022/12/28 08:29:22;;;;;;;19.02;5.30;;;10.20;99.90;;;;;;5034337;28;20489;-69
2022/12/28 08:31:48;;;;;;;20.85;6.40;;;10.20;99.90;;;;;;5032876;28;20501;-68
2022/12/28 08:34:17;;;;;;;15.65;5.35;;;10.30;99.90;;;;;;5032888;28;20033;-70
2022/12/28 08:36:42;;;;;;;20.10;6.85;;;10.30;99.90;;;;;;5031386;28;20027;-69
2022/12/28 08:39:08;;;;;;;16.98;6.03;;;10.30;99.90;;;;;;5015055;28;20038;-68
2022/12/28 08:41:34;;;;;;;19.90;5.55;;;10.40;99.90;;;;;;5025327;28;20723;-68
2022/12/28 08:43:59;;;;;;;15.13;5.50;;;10.40;99.90;;;;;;5054404;28;20060;-70
2022/12/28 08:46:28;;;;;;;13.63;4.97;;;10.40;99.90;;;;;;5028438;28;20029;-69
2022/12/28 08:48:55;;;;;;;15.13;4.88;;;10.50;99.90;;;;;;5034475;28;20048;-69
2022/12/28 08:51:25;;;;;;;13.80;4.18;;;10.50;99.90;;;;;;5028085;28;20432;-69
2022/12/28 08:53:51;;;;;;;14.20;4.57;;;10.50;99.90;;;;;;5024774;28;20083;-68
2022/12/28 08:56:24;;;;;;;14.75;4.38;;;10.50;99.90;;;;;;5034378;28;20108;-69
2022/12/28 08:58:50;;;;;;;17.52;4.47;;;10.50;99.90;;;;;;5025350;28;20057;-69
2022/12/28 09:01:19;;;;;;;15.20;4.50;;;10.50;99.90;;;;;;5021489;28;20046;-68
2022/12/28 09:03:46;;;;;;;15.25;4.70;;;10.50;99.90;;;;;;5033927;28;20052;-69
2022/12/28 09:06:15;;;;;;;14.07;4.55;;;10.60;99.90;;;;;;5034290;28;20037;-67
2022/12/28 09:08:40;;;;;;;12.23;4.68;;;10.60;99.90;;;;;;5033943;28;20112;-68
2022/12/28 09:11:10;;;;;;;15.50;4.32;;;10.60;99.90;;;;;;5030069;28;20117;-68
2022/12/28 09:13:36;;;;;;;13.10;3.92;;;10.60;99.90;;;;;;5013320;28;20084;-69
2022/12/28 09:16:10;;;;;;;12.15;4.20;;;10.60;99.90;;;;;;5024774;28;20036;-68
2022/12/28 09:18:37;;;;;;;13.75;3.78;;;10.60;99.90;;;;;;5032786;28;20041;-67
2022/12/28 09:21:15;;;;;;;11.80;3.50;;;10.70;99.90;;;;;;5032073;28;20030;-68
2022/12/28 09:23:41;;;;;;;12.13;3.65;;;10.70;99.90;;;;;;5033803;28;20029;-69
2022/12/28 09:26:12;;;;;;;9.07;3.83;;;10.70;99.90;;;;;;5026545;28;20026;-69
2022/12/28 09:28:38;;;;;;;10.25;3.83;;;10.70;99.90;;;;;;5029015;28;20378;-69
2022/12/28 09:31:06;;;;;;;7.95;3.17;;;10.80;99.90;;;;;;5023318;28;20120;-68
2022/12/28 09:36:18;;;;;;;8.80;3.15;;;10.70;99.90;;;;;;5033223;28;20110;-68
2022/12/28 09:38:44;;;;;;;6.97;3.05;;;10.70;99.90;;;;;;5027838;28;20033;-69
2022/12/28 09:41:36;;;;;;;9.27;2.97;;;10.70;99.90;;;;;;5025946;28;20436;-68
2022/12/28 09:44:32;;;;;;;7.68;3.15;;;10.80;99.90;;;;;;5026186;28;20116;-69
2022/12/28 09:47:16;;;;;;;7.90;2.83;;;10.80;99.90;;;;;;5020327;28;20037;-69
2022/12/28 09:50:04;;;;;;;9.68;3.10;;;10.80;99.90;;;;;;5025883;28;20410;-67
2022/12/28 09:52:52;;;;;;;7.07;3.03;;;10.80;99.90;;;;;;5024342;28;20025;-68
2022/12/28 09:55:19;;;;;;;10.60;2.53;;;10.80;99.90;;;;;;5027691;28;20044;-70
2022/12/28 09:57:48;;;;;;;8.18;2.47;;;10.80;99.90;;;;;;5029867;28;20026;-68
2022/12/28 10:00:19;;;;;;;4.22;2.28;;;10.80;99.90;;;;;;5025558;28;20025;-67
2022/12/28 10:02:51;;;;;;;6.78;2.70;;;10.80;99.90;;;;;;5027590;28;20117;-68
2022/12/28 10:05:17;;;;;;;;;;;10.90;99.90;;;;;;5047638;28;20471;-69
2022/12/28 10:07:43;;;;;;;7.80;2.28;;;10.90;99.90;;;;;;5031228;28;19994;-70
2022/12/28 10:10:15;;;;;;;4.65;2.55;;;10.90;99.90;;;;;;5025792;28;20113;-70
2022/12/28 10:12:42;;;;;;;8.38;2.60;;;10.90;99.90;;;;;;5028859;28;20108;-68
2022/12/28 10:15:12;;;;;;;4.85;2.08;;;10.90;99.90;;;;;;5031031;28;20037;-69
2022/12/28 10:17:44;;;;;;;5.47;2.58;;;10.90;99.90;;;;;;5030497;28;20045;-70
2022/12/28 10:20:18;;;;;;;5.07;2.42;;;10.90;99.90;;;;;;5030655;28;20551;-68
2022/12/28 10:22:52;;;;;;;4.65;2.70;;;11.00;99.90;;;;;;5039561;28;20033;-68
2022/12/28 10:25:21;;;;;;;7.82;3.63;;;11.00;99.90;;;;;;5043303;28;20104;-68
2022/12/28 10:27:46;;;;;;;7.10;2.30;;;11.00;99.90;;;;;;5039664;28;20094;-68
2022/12/28 10:30:22;;;;;;;4.30;1.80;;;11.00;99.90;;;;;;5046731;28;20025;-69
2022/12/28 10:32:51;;;;;;;5.40;2.38;;;11.00;99.90;;;;;;5041913;28;20021;-68
2022/12/28 10:35:26;;;;;;;5.28;2.00;;;11.00;99.90;;;;;;5043971;28;20032;-70
2022/12/28 10:37:58;;;;;;;9.68;2.33;;;11.00;99.90;;;;;;5036177;28;20116;-69
2022/12/28 10:40:26;;;;;;;;;;;11.00;99.90;;;;;;5039344;28;20060;-68
2022/12/28 10:42:56;;;;;;;5.28;2.30;;;11.00;99.90;;;;;;5038933;28;20412;-70
2022/12/28 10:45:23;;;;;;;3.78;1.60;;;11.00;99.90;;;;;;5036776;28;20030;-70
2022/12/28 10:47:52;;;;;;;5.10;2.08;;;10.90;99.90;;;;;;5044883;28;20074;-70
2022/12/28 10:50:51;;;;;;;5.90;2.00;;;10.90;99.90;;;;;;5040606;28;20037;-68
2022/12/28 10:53:24;;;;;;;2.63;1.83;;;10.80;99.90;;;;;;5034315;28;20033;-69
2022/12/28 10:56:01;;;;;;;2.35;1.92;;;10.70;99.90;;;;;;5031988;28;20018;-69
2022/12/28 10:58:27;;;;;;;5.88;2.33;;;10.70;99.90;;;;;;5030406;28;20156;-69
2022/12/28 11:01:15;;;;;;;3.33;2.22;;;10.60;99.90;;;;;;5016662;28;20109;-69
2022/12/28 11:03:56;;;;;;;4.30;2.60;;;10.60;99.90;;;;;;5025959;28;20686;-69
2022/12/28 11:06:30;;;;;;;5.22;3.10;;;10.50;99.90;;;;;;5028486;28;20749;-70
2022/12/28 11:09:04;;;;;;;8.93;3.50;;;10.50;99.90;;;;;;5023551;28;20474;-71
2022/12/28 11:11:30;;;;;;;3.80;2.60;;;10.50;99.90;;;;;;5031999;28;20072;-71
2022/12/28 11:14:05;;;;;;;12.98;3.63;;;10.50;99.90;;;;;;5031741;28;20403;-69
2022/12/28 11:16:35;;;;;;;5.38;3.60;;;10.40;99.90;;;;;;5030623;28;20091;-70
2022/12/28 11:19:01;;;;;;;6.45;3.17;;;10.40;99.90;;;;;;5029354;28;20106;-70
2022/12/28 11:21:26;;;;;;;6.03;3.38;;;10.40;99.90;;;;;;5030303;28;20499;-70
2022/12/28 11:23:52;;;;;;;5.22;3.72;;;10.40;99.90;;;;;;5024781;28;20033;-70
2022/12/28 11:26:19;;;;;;;5.75;2.60;;;10.40;99.90;;;;;;5027787;28;20033;-70
2022/12/28 11:28:47;;;;;;;4.38;2.75;;;10.40;99.90;;;;;;5035375;28;20040;-69
2022/12/28 11:31:23;;;;;;;9.57;3.33;;;10.40;99.90;;;;;;5028792;28;20080;-70
2022/12/28 11:33:53;;;;;;;4.65;2.95;;;10.30;99.90;;;;;;5031727;28;20022;-69
2022/12/28 11:36:22;;;;;;;5.72;2.75;;;10.30;99.90;;;;;;5032491;28;20029;-69
2022/12/28 11:38:50;;;;;;;2.55;2.03;;;10.30;99.90;;;;;;5033180;28;20041;-69
2022/12/28 11:41:40;;;;;;;3.35;2.25;;;10.20;99.90;;;;;;5026056;28;20411;-70
2022/12/28 11:44:19;;;;;;;3.42;2.33;;;10.20;99.90;;;;;;5031430;28;20116;-70
2022/12/28 11:47:04;;;;;;;6.75;2.92;;;10.10;99.90;;;;;;5033341;28;20488;-70
2022/12/28 11:49:33;;;;;;;7.22;2.90;;;10.10;99.90;;;;;;5033020;28;20542;-69
2022/12/28 11:52:16;;;;;;;6.20;3.00;;;10.10;99.90;;;;;;5035717;28;20033;-70
2022/12/28 11:54:55;;;;;;;5.15;2.78;;;10.00;99.90;;;;;;5031215;28;20025;-69
2022/12/28 11:57:37;;;;;;;5.78;2.72;;;10.00;99.90;;;;;;5030598;28;20049;-70
2022/12/28 12:00:22;;;;;;;;;;;10.00;99.90;;;;;;5034726;28;20030;-69
2022/12/28 12:02:56;;;;;;;3.92;2.10;;;10.00;99.90;;;;;;5040419;28;19923;-70
2022/12/28 12:05:37;;;;;;;5.63;1.98;;;9.90;99.90;;;;;;5031547;28;20522;-70
2022/12/28 12:08:14;;;;;;;3.28;1.63;;;9.90;99.90;;;;;;5034942;28;20048;-70
2022/12/28 12:10:45;;;;;;;3.75;1.48;;;9.80;99.90;;;;;;5029626;28;20521;-69
2022/12/28 12:13:23;;;;;;;6.32;1.73;;;9.80;99.90;;;;;;5041887;28;20434;-70
2022/12/28 12:16:05;;;;;;;5.90;1.90;;;9.80;99.90;;;;;;5030912;28;20117;-70
2022/12/28 12:18:55;;;;;;;4.85;1.77;;;9.70;99.90;;;;;;5034566;28;20029;-71
2022/12/28 12:21:36;;;;;;;7.13;2.27;;;9.70;99.90;;;;;;5032433;28;20041;-71
2022/12/28 12:24:17;;;;;;;7.00;1.92;;;9.70;99.90;;;;;;5029764;28;20365;-70
2022/12/28 12:26:51;;;;;;;2.97;1.52;;;9.70;99.90;;;;;;5029095;28;20071;-70
2022/12/28 12:29:39;;;;;;;6.63;2.00;;;9.70;99.90;;;;;;5027412;28;20041;-70
2022/12/28 12:32:13;;;;;;;3.50;2.00;;;9.70;99.90;;;;;;5027539;28;20094;-69
2022/12/28 12:34:50;;;;;;;5.57;1.75;;;9.70;99.90;;;;;;5029114;28;20033;-70
2022/12/28 12:37:22;;;;;;;6.40;2.38;;;9.70;99.90;;;;;;5032680;28;20467;-69
2022/12/28 12:40:08;;;;;;;7.43;2.63;;;9.80;99.90;;;;;;5034476;28;20073;-70
2022/12/28 12:42:49;;;;;;;7.97;2.33;;;9.80;99.90;;;;;;5029117;28;20068;-69
2022/12/28 12:45:40;;;;;;;4.72;2.50;;;9.90;99.90;;;;;;5030886;28;20446;-70
2022/12/28 12:48:15;;;;;;;5.07;3.15;;;9.90;99.90;;;;;;5026384;28;20068;-70
2022/12/28 12:50:53;;;;;;;3.13;1.90;;;9.90;99.90;;;;;;5033712;28;20029;-70
2022/12/28 12:53:51;;;;;;;7.45;2.35;;;10.00;99.90;;;;;;5030724;28;20421;-70
2022/12/28 12:56:32;;;;;;;7.43;2.65;;;10.10;99.90;;;;;;5006754;28;20541;-69
2022/12/28 12:59:32;;;;;;;6.10;3.40;;;10.10;99.90;;;;;;5030724;28;20037;-70
2022/12/28 13:02:18;;;;;;;8.40;3.42;;;10.20;99.90;;;;;;5017415;28;20052;-69
2022/12/28 13:04:44;;;;;;;8.00;3.17;;;10.20;99.90;;;;;;5030365;28;20056;-69
2022/12/28 13:07:29;;;;;;;8.25;3.63;;;10.20;99.90;;;;;;5030855;28;20126;-70
2022/12/28 13:09:58;;;;;;;8.55;3.55;;;10.30;99.90;;;;;;5035099;28;20026;-68
2022/12/28 13:12:24;;;;;;;9.63;3.63;;;10.30;99.90;;;;;;5033482;28;20106;-69
2022/12/28 13:15:02;;;;;;;11.40;3.35;;;10.30;99.90;;;;;;5033955;28;20025;-69
2022/12/28 13:17:28;;;;;;;15.68;4.78;;;10.30;99.90;;;;;;5029784;28;20071;-70
2022/12/28 13:20:26;;;;;;;9.40;3.10;;;10.30;99.90;;;;;;5033827;28;20113;-70
2022/12/28 13:22:52;;;;;;;5.18;2.75;;;10.40;99.90;;;;;;5008975;28;20048;-72
2022/12/28 13:25:27;;;;;;;5.03;2.35;;;10.30;99.90;;;;;;5031564;28;20021;-70
2022/12/28 13:28:05;;;;;;;10.05;3.30;;;10.40;99.90;;;;;;5031064;28;20569;-69
2022/12/28 13:30:32;;;;;;;11.48;2.70;;;10.40;99.90;;;;;;5032319;28;20022;-69
2022/12/28 13:33:02;;;;;;;3.72;2.42;;;10.40;99.90;;;;;;5032479;28;20021;-70
2022/12/28 13:35:34;;;;;;;6.68;2.60;;;10.40;99.90;;;;;;5027452;28;20033;-69
2022/12/28 13:38:02;;;;;;;;;;;10.50;99.90;;;;;;5031393;28;20033;-70
2022/12/28 13:40:29;;;;;;;5.13;2.13;;;10.50;99.90;;;;;;5058569;28;19916;-69